createdAt,value
2022-09-10T00:01:27.344Z,3.42
2022-09-10T00:03:54.768Z,3.50
2022-09-10T00:06:24.483Z,2.55
2022-09-10T00:08:50.987Z,3.38
2022-09-10T00:11:17.465Z,3.22
2022-09-10T00:13:44.387Z,3.63
2022-09-10T00:16:13.729Z,3.10
2022-09-10T00:18:40.713Z,2.80
2022-09-10T00:21:13.167Z,3.38
2022-09-10T00:23:40.246Z,3.30
2022-09-10T00:26:14.937Z,3.50
2022-09-10T00:28:41.533Z,3.20
2022-09-10T00:34:55.175Z,3.15
2022-09-10T00:37:22.184Z,3.20
2022-09-10T00:39:48.704Z,3.15
2022-09-10T00:42:17.685Z,3.58
2022-09-10T00:44:44.507Z,3.15
2022-09-10T00:47:21.748Z,3.90
2022-09-10T00:50:22.939Z,3.05
2022-09-10T00:52:53.796Z,2.88
2022-09-10T00:55:20.768Z,3.35
2022-09-10T00:57:49.683Z,3.28
2022-09-10T01:00:16.569Z,3.42
2022-09-10T01:02:43.280Z,3.00
2022-09-10T01:05:10.242Z,3.60
2022-09-10T01:07:36.779Z,3.35
2022-09-10T01:10:09.050Z,3.63
2022-09-10T01:15:15.625Z,3.55
2022-09-10T01:18:12.328Z,3.17
2022-09-10T01:20:48.206Z,3.17
2022-09-10T01:27:26.219Z,3.78
2022-09-10T01:30:03.282Z,3.03
2022-09-10T01:32:39.746Z,3.20
2022-09-10T01:35:10.411Z,3.50
2022-09-10T01:37:38.478Z,2.92
2022-09-10T01:40:05.945Z,2.53
2022-09-10T01:42:32.637Z,2.83
2022-09-10T01:44:59.830Z,3.00
2022-09-10T01:47:52.351Z,3.10
2022-09-10T01:53:33.328Z,2.80
2022-09-10T01:56:24.412Z,3.20
2022-09-10T01:58:51.131Z,2.95
2022-09-10T02:01:34.433Z,2.65
2022-09-10T02:04:04.681Z,3.75
2022-09-10T02:06:34.682Z,3.00
2022-09-10T02:09:01.876Z,3.17
2022-09-10T02:15:17.040Z,2.88
2022-09-10T02:17:44.335Z,3.25
2022-09-10T02:20:13.654Z,2.97
2022-09-10T02:22:44.433Z,3.33
2022-09-10T02:25:11.205Z,3.22
2022-09-10T02:27:38.310Z,4.03
2022-09-10T02:30:08.596Z,3.53
2022-09-10T02:32:35.016Z,3.67
2022-09-10T02:35:01.477Z,2.80
2022-09-10T02:37:28.291Z,2.25
2022-09-10T02:39:55.470Z,3.08
2022-09-10T02:42:22.259Z,3.30
2022-09-10T02:44:49.717Z,3.05
2022-09-10T02:47:16.138Z,2.60
2022-09-10T02:49:42.553Z,3.00
2022-09-10T02:52:09.402Z,2.97
2022-09-10T02:54:36.315Z,2.65
2022-09-10T02:57:02.781Z,2.67
2022-09-10T02:59:29.186Z,2.97
2022-09-10T03:01:56.311Z,2.58
2022-09-10T03:04:22.791Z,3.13
2022-09-10T03:06:49.464Z,2.45
2022-09-10T03:09:17.107Z,2.65
2022-09-10T03:11:43.564Z,2.55
2022-09-10T03:14:10.669Z,2.75
2022-09-10T03:16:37.145Z,2.53
2022-09-10T03:19:03.657Z,2.50
2022-09-10T03:21:30.125Z,2.10
2022-09-10T03:23:57.333Z,2.28
2022-09-10T03:26:27.068Z,2.55
2022-09-10T03:28:53.549Z,2.60
2022-09-10T03:31:20.115Z,2.50
2022-09-10T03:33:46.568Z,2.70
2022-09-10T03:36:15.844Z,2.17
2022-09-10T03:38:42.647Z,2.58
2022-09-10T03:41:09.315Z,2.30
2022-09-10T03:43:35.967Z,2.33
2022-09-10T03:46:02.841Z,2.33
2022-09-10T03:48:29.667Z,2.40
2022-09-10T03:50:56.354Z,3.03
2022-09-10T03:53:22.917Z,2.72
2022-09-10T03:55:50.676Z,2.83
2022-09-10T03:58:17.912Z,2.72
2022-09-10T04:04:25.170Z,3.15
2022-09-10T04:06:53.299Z,3.20
2022-09-10T04:09:19.795Z,3.60
2022-09-10T04:11:46.298Z,3.17
2022-09-10T04:14:12.729Z,3.22
2022-09-10T04:16:39.216Z,4.05
2022-09-10T04:19:05.645Z,4.57
2022-09-10T04:21:32.007Z,5.35
2022-09-10T04:24:00.681Z,5.30
2022-09-10T04:26:27.126Z,5.93
2022-09-10T04:28:53.619Z,5.90
2022-09-10T04:31:20.325Z,5.80
2022-09-10T04:33:47.007Z,5.43
2022-09-10T04:36:14.159Z,6.15
2022-09-10T04:38:42.061Z,5.75
2022-09-10T04:41:09.307Z,6.13
2022-09-10T04:43:36.979Z,5.78
2022-09-10T04:46:03.468Z,7.18
2022-09-10T04:48:29.912Z,5.70
2022-09-10T04:54:37.974Z,5.30
2022-09-10T04:57:05.202Z,5.38
2022-09-10T04:59:31.863Z,5.45
2022-09-10T05:01:58.603Z,5.75
2022-09-10T05:04:25.404Z,5.38
2022-09-10T05:06:53.166Z,5.80
2022-09-10T05:09:20.412Z,6.47
2022-09-10T05:11:47.309Z,6.47
2022-09-10T05:14:14.158Z,5.88
2022-09-10T05:16:40.759Z,6.10
2022-09-10T05:19:07.582Z,5.63
2022-09-10T05:21:33.983Z,5.72
2022-09-10T05:24:00.366Z,6.10
2022-09-10T05:26:27.759Z,7.30
2022-09-10T05:28:55.487Z,6.65
2022-09-10T05:31:22.102Z,6.40
2022-09-10T05:33:48.523Z,6.10
2022-09-10T05:36:14.928Z,5.95
2022-09-10T05:38:41.683Z,6.57
2022-09-10T05:41:11.557Z,6.43
2022-09-10T05:43:38.128Z,5.85
2022-09-10T05:46:04.949Z,6.22
2022-09-10T05:48:31.431Z,6.70
2022-09-10T05:50:57.906Z,6.90
2022-09-10T05:53:24.588Z,6.45
2022-09-10T05:55:50.998Z,7.63
2022-09-10T05:58:17.371Z,6.80
2022-09-10T06:00:43.937Z,7.80
2022-09-10T06:03:10.489Z,7.72
2022-09-10T06:05:37.031Z,7.28
2022-09-10T06:08:08.003Z,8.40
2022-09-10T06:10:35.620Z,8.18
2022-09-10T06:13:02.083Z,8.50
2022-09-10T06:15:28.451Z,7.57
2022-09-10T06:17:55.837Z,7.82
2022-09-10T06:20:23.344Z,7.82
2022-09-10T06:22:49.790Z,8.70
2022-09-10T06:25:16.285Z,7.88
2022-09-10T06:27:42.679Z,7.47
2022-09-10T06:30:09.316Z,7.47
2022-09-10T06:32:35.722Z,7.63
2022-09-10T06:35:02.130Z,8.82
2022-09-10T06:37:28.590Z,7.55
2022-09-10T06:39:55.033Z,7.75
2022-09-10T06:42:23.151Z,8.10
2022-09-10T06:44:50.303Z,7.78
2022-09-10T06:50:04.389Z,7.95
2022-09-10T06:52:30.792Z,8.82
2022-09-10T06:54:57.185Z,8.63
2022-09-10T06:57:26.694Z,9.15
2022-09-10T06:59:53.295Z,8.50
2022-09-10T07:02:19.762Z,9.23
2022-09-10T07:04:46.203Z,8.90
2022-09-10T07:07:12.846Z,8.73
2022-09-10T07:09:39.310Z,7.90
2022-09-10T07:12:05.895Z,8.30
2022-09-10T07:14:33.257Z,8.07
2022-09-10T07:16:59.710Z,7.22
2022-09-10T07:19:26.120Z,7.90
2022-09-10T07:21:52.515Z,7.22
2022-09-10T07:24:20.097Z,7.43
2022-09-10T07:26:47.046Z,6.85
2022-09-10T07:29:13.504Z,7.45
2022-09-10T07:31:41.511Z,6.88
2022-09-10T07:34:08.583Z,7.13
2022-09-10T07:36:35.070Z,6.95
2022-09-10T07:39:01.828Z,7.80
2022-09-10T07:41:30.079Z,7.22
2022-09-10T07:43:57.076Z,6.88
2022-09-10T07:46:25.631Z,6.40
2022-09-10T07:49:00.241Z,6.07
2022-09-10T07:51:28.637Z,5.97
2022-09-10T07:53:56.642Z,6.63
2022-09-10T07:56:23.513Z,6.38
2022-09-10T07:58:50.474Z,6.95
2022-09-10T08:01:19.768Z,6.38
2022-09-10T08:03:46.418Z,7.10
2022-09-10T08:06:13.069Z,6.70
2022-09-10T08:08:40.169Z,6.30
2022-09-10T08:11:14.862Z,7.25
2022-09-10T08:13:45.845Z,6.28
2022-09-10T08:16:15.126Z,6.25
2022-09-10T08:18:43.571Z,6.60
2022-09-10T08:21:11.008Z,6.82
2022-09-10T08:23:39.648Z,6.28
2022-09-10T08:26:08.069Z,7.03
2022-09-10T08:28:36.073Z,6.55
2022-09-10T08:31:11.472Z,6.10
2022-09-10T08:33:41.416Z,5.57
2022-09-10T08:36:14.827Z,6.28
2022-09-10T08:38:41.613Z,5.32
2022-09-10T08:41:15.561Z,6.03
2022-09-10T08:43:51.515Z,6.03
2022-09-10T08:46:32.300Z,5.85
2022-09-10T08:53:17.611Z,5.97
2022-09-10T08:55:48.702Z,5.53
2022-09-10T08:58:20.877Z,5.53
2022-09-10T09:00:47.551Z,5.40
2022-09-10T09:03:24.826Z,5.43
2022-09-10T09:06:33.974Z,5.28
2022-09-10T09:09:01.129Z,5.15
2022-09-10T09:11:50.630Z,5.22
2022-09-10T09:14:21.206Z,4.90
2022-09-10T09:17:01.359Z,5.20
2022-09-10T09:19:28.297Z,5.40
2022-09-10T09:21:55.875Z,6.30
2022-09-10T09:24:23.665Z,5.68
2022-09-10T09:26:50.504Z,5.10
2022-09-10T09:29:27.444Z,5.63
2022-09-10T09:31:57.932Z,5.95
2022-09-10T09:34:54.656Z,5.72
2022-09-10T09:37:24.960Z,5.90
2022-09-10T09:44:06.614Z,5.15
2022-09-10T09:46:34.520Z,5.30
2022-09-10T09:49:02.166Z,5.15
2022-09-10T09:51:35.282Z,5.18
2022-09-10T09:54:46.665Z,4.97
2022-09-10T09:56:59.784Z,5.22
2022-09-10T09:59:36.987Z,5.35
2022-09-10T10:02:24.193Z,5.40
2022-09-10T10:05:07.214Z,5.35
2022-09-10T10:07:48.618Z,6.00
2022-09-10T10:10:24.480Z,6.23
2022-09-10T10:12:52.085Z,6.30
2022-09-10T10:15:42.394Z,5.90
2022-09-10T10:18:33.520Z,5.93
2022-09-10T10:21:20.131Z,6.00
2022-09-10T10:24:05.891Z,6.53
2022-09-10T10:26:36.019Z,6.05
2022-09-10T10:29:06.439Z,6.95
2022-09-10T10:31:38.877Z,6.38
2022-09-10T10:34:27.164Z,6.45
2022-09-10T10:37:35.177Z,6.70
2022-09-10T10:43:53.652Z,7.28
2022-09-10T10:49:05.238Z,7.15
2022-09-10T10:51:32.004Z,7.10
2022-09-10T10:58:03.713Z,9.05
2022-09-10T11:00:40.811Z,8.90
2022-09-10T11:03:24.120Z,10.18
2022-09-10T11:06:09.366Z,9.73
2022-09-10T11:08:41.818Z,9.02
2022-09-10T11:11:13.743Z,8.25
2022-09-10T11:13:51.425Z,7.05
2022-09-10T11:16:26.093Z,7.43
2022-09-10T11:19:11.407Z,7.88
2022-09-10T11:21:44.862Z,7.90
2022-09-10T11:24:24.453Z,7.95
2022-09-10T11:27:08.611Z,8.07
2022-09-10T11:29:50.123Z,9.10
2022-09-10T11:32:54.791Z,8.00
2022-09-10T11:35:40.144Z,8.45
2022-09-10T11:38:32.490Z,8.13
2022-09-10T11:41:17.420Z,8.88
2022-09-10T11:43:53.143Z,8.55
2022-09-10T11:46:25.299Z,8.55
2022-09-10T11:51:37.134Z,7.88
2022-09-10T11:54:35.689Z,8.80
2022-09-10T11:57:26.582Z,7.32
2022-09-10T12:00:16.356Z,6.60
2022-09-10T12:03:10.050Z,7.70
2022-09-10T12:05:42.462Z,7.63
2022-09-10T12:08:30.688Z,7.78
2022-09-10T12:11:15.747Z,7.88
2022-09-10T12:13:44.614Z,8.75
2022-09-10T12:16:22.642Z,9.13
2022-09-10T12:19:20.057Z,9.90
2022-09-10T12:21:50.045Z,9.00
2022-09-10T12:24:34.199Z,9.77
2022-09-10T12:27:01.885Z,9.00
2022-09-10T12:29:34.421Z,8.43
2022-09-10T12:32:19.143Z,8.02
2022-09-10T12:34:48.393Z,8.30
2022-09-10T12:37:27.790Z,10.05
2022-09-10T12:40:25.691Z,10.75
2022-09-10T12:42:58.032Z,10.02
2022-09-10T12:46:03.059Z,8.60
2022-09-10T12:48:29.811Z,8.75
2022-09-10T12:51:19.765Z,9.20
2022-09-10T12:54:15.359Z,9.80
2022-09-10T12:57:04.042Z,9.27
2022-09-10T12:59:46.762Z,9.60
2022-09-10T13:02:28.430Z,9.38
2022-09-10T13:05:01.436Z,9.15
2022-09-10T13:07:36.933Z,10.77
2022-09-10T13:10:18.444Z,11.80
2022-09-10T13:12:49.443Z,11.88
2022-09-10T13:15:30.090Z,14.00
2022-09-10T13:17:56.446Z,14.20
2022-09-10T13:20:22.752Z,14.60
2022-09-10T13:22:58.603Z,14.18
2022-09-10T13:25:26.497Z,15.00
2022-09-10T13:27:53.294Z,15.77
2022-09-10T13:30:21.958Z,16.33
2022-09-10T13:32:58.491Z,18.17
2022-09-10T13:35:41.244Z,17.75
2022-09-10T13:38:17.042Z,17.27
2022-09-10T13:41:14.459Z,15.88
2022-09-10T13:43:40.952Z,18.15
2022-09-10T13:46:14.762Z,15.45
2022-09-10T13:48:52.741Z,17.13
2022-09-10T13:51:32.335Z,17.48
2022-09-10T13:54:13.639Z,17.58
2022-09-10T13:56:43.622Z,18.85
2022-09-10T13:59:18.878Z,18.65
2022-09-10T14:01:49.731Z,18.50
2022-09-10T14:04:28.025Z,18.83
2022-09-10T14:06:58.988Z,19.60
2022-09-10T14:09:26.197Z,18.15
2022-09-10T14:11:53.027Z,17.73
2022-09-10T14:14:23.402Z,17.88
2022-09-10T14:17:18.937Z,18.17
2022-09-10T14:19:49.150Z,18.70
2022-09-10T14:22:17.276Z,19.27
2022-09-10T14:24:43.745Z,19.58
2022-09-10T14:27:30.944Z,20.15
2022-09-10T14:30:21.026Z,20.00
2022-09-10T14:32:47.428Z,19.90
2022-09-10T14:35:43.201Z,20.95
2022-09-10T14:38:29.313Z,17.75
2022-09-10T14:41:08.524Z,19.23
2022-09-10T14:43:39.216Z,17.98
2022-09-10T14:46:10.311Z,18.02
2022-09-10T14:48:42.421Z,19.02
2022-09-10T14:51:10.783Z,16.15
2022-09-10T14:53:37.946Z,16.90
2022-09-10T14:56:06.422Z,16.83
2022-09-10T14:58:32.800Z,15.77
2022-09-10T15:01:00.080Z,16.65
2022-09-10T15:03:26.636Z,17.35
2022-09-10T15:05:53.199Z,16.90
2022-09-10T15:08:19.786Z,17.25
2022-09-10T15:10:48.936Z,14.13
2022-09-10T15:13:18.777Z,14.63
2022-09-10T15:15:48.221Z,15.00
2022-09-10T15:18:17.178Z,15.20
2022-09-10T15:20:43.610Z,15.75
2022-09-10T15:23:10.381Z,17.30
2022-09-10T15:25:40.374Z,15.18
2022-09-10T15:28:09.680Z,16.45
2022-09-10T15:30:36.782Z,13.90
2022-09-10T15:33:04.952Z,14.27
2022-09-10T15:35:31.328Z,14.93
2022-09-10T15:37:58.068Z,14.82
2022-09-10T15:40:24.677Z,14.55
2022-09-10T15:42:52.212Z,15.07
2022-09-10T15:45:18.688Z,13.60
2022-09-10T15:47:45.300Z,12.85
2022-09-10T15:50:12.339Z,11.90
2022-09-10T15:52:38.743Z,11.20
2022-09-10T15:55:06.773Z,13.00
2022-09-10T15:57:33.810Z,11.85
2022-09-10T16:00:01.738Z,12.52
2022-09-10T16:02:28.437Z,12.88
2022-09-10T16:04:54.950Z,14.82
2022-09-10T16:07:21.338Z,15.27
2022-09-10T16:10:12.614Z,15.63
2022-09-10T16:12:39.027Z,17.60
2022-09-10T16:15:06.080Z,21.17
2022-09-10T16:17:32.543Z,20.30
2022-09-10T16:20:00.096Z,25.10
2022-09-10T16:22:27.239Z,24.92
2022-09-10T16:24:53.819Z,24.77
2022-09-10T16:27:20.224Z,24.98
2022-09-10T16:29:47.278Z,23.63
2022-09-10T16:32:13.685Z,24.00
2022-09-10T16:34:40.096Z,22.90
2022-09-10T16:37:06.996Z,22.27
2022-09-10T16:39:33.471Z,23.38
2022-09-10T16:41:59.917Z,24.40
2022-09-10T16:44:26.794Z,23.33
2022-09-10T16:46:53.176Z,22.95
2022-09-10T16:49:19.586Z,24.08
2022-09-10T16:51:47.232Z,24.38
2022-09-10T16:54:14.040Z,23.42
2022-09-10T16:56:45.580Z,24.08
2022-09-10T16:59:14.988Z,22.55
2022-09-10T17:01:43.976Z,22.58
2022-09-10T17:04:19.356Z,21.92
2022-09-10T17:06:48.341Z,20.52
2022-09-10T17:09:29.224Z,20.55
2022-09-10T17:12:00.500Z,21.20
2022-09-10T17:14:50.136Z,21.17
2022-09-10T17:17:16.724Z,22.10
2022-09-10T17:19:43.082Z,22.70
2022-09-10T17:22:17.740Z,23.15
2022-09-10T17:24:44.201Z,23.25
2022-09-10T17:27:11.323Z,23.33
2022-09-10T17:29:38.485Z,22.33
2022-09-10T17:32:05.332Z,23.95
2022-09-10T17:34:32.032Z,25.00
2022-09-10T17:37:01.532Z,24.50
2022-09-10T17:39:29.408Z,25.38
2022-09-10T17:42:01.961Z,23.95
2022-09-10T17:44:28.413Z,25.33
2022-09-10T17:46:55.216Z,26.67
2022-09-10T17:49:21.864Z,24.70
2022-09-10T17:51:48.398Z,25.25
2022-09-10T17:54:15.409Z,26.20
2022-09-10T17:56:43.257Z,26.00
2022-09-10T17:59:12.038Z,25.85
2022-09-10T18:01:38.822Z,27.27
2022-09-10T18:04:06.772Z,28.23
2022-09-10T18:06:35.710Z,27.55
2022-09-10T18:09:02.721Z,26.90
2022-09-10T18:11:31.112Z,25.15
2022-09-10T18:13:58.463Z,26.15
2022-09-10T18:16:32.177Z,25.45
2022-09-10T18:19:01.879Z,26.20
2022-09-10T18:21:31.361Z,26.77
2022-09-10T18:24:03.122Z,26.77
2022-09-10T18:26:31.626Z,26.67
2022-09-10T18:29:02.059Z,26.42
2022-09-10T18:31:31.088Z,27.40
2022-09-10T18:34:02.187Z,26.55
2022-09-10T18:36:53.406Z,27.92
2022-09-10T18:39:20.329Z,27.45
2022-09-10T18:41:47.161Z,27.13
2022-09-10T18:44:22.453Z,28.33
2022-09-10T18:47:41.274Z,27.13
2022-09-10T18:50:04.682Z,28.15
2022-09-10T18:52:31.136Z,26.85
2022-09-10T18:54:57.739Z,27.75
2022-09-10T18:57:25.300Z,29.23
2022-09-10T18:59:54.041Z,28.52
2022-09-10T19:02:21.172Z,28.77
2022-09-10T19:05:09.706Z,28.40
2022-09-10T19:07:34.334Z,28.65
2022-09-10T19:10:04.132Z,28.10
2022-09-10T19:12:30.521Z,28.40
2022-09-10T19:14:57.013Z,28.10
2022-09-10T19:17:23.863Z,29.33
2022-09-10T19:19:50.702Z,30.10
2022-09-10T19:22:18.053Z,30.08
2022-09-10T19:24:54.426Z,29.13
2022-09-10T19:27:25.138Z,30.08
2022-09-10T19:29:51.677Z,31.08
2022-09-10T19:32:19.500Z,28.67
2022-09-10T19:34:46.246Z,27.45
2022-09-10T19:37:17.717Z,30.88
2022-09-10T19:39:44.527Z,29.83
2022-09-10T19:42:12.451Z,28.65
2022-09-10T19:48:26.125Z,29.38
2022-09-10T19:51:46.677Z,29.70
2022-09-10T19:54:13.894Z,31.15
2022-09-10T19:56:42.506Z,31.13
2022-09-10T19:59:09.839Z,29.23
2022-09-10T20:01:53.338Z,29.58
2022-09-10T20:04:19.867Z,31.42
2022-09-10T20:06:47.590Z,28.30
2022-09-10T20:09:14.082Z,31.17
2022-09-10T20:11:40.970Z,31.65
2022-09-10T20:14:10.807Z,29.45
2022-09-10T20:16:38.642Z,30.75
2022-09-10T20:19:06.067Z,31.33
2022-09-10T20:21:33.343Z,30.35
2022-09-10T20:23:59.785Z,30.13
2022-09-10T20:26:34.396Z,31.02
2022-09-10T20:29:03.888Z,31.23
2022-09-10T20:31:32.180Z,31.58
2022-09-10T20:34:00.341Z,30.98
2022-09-10T20:36:27.782Z,28.08
2022-09-10T20:38:55.869Z,30.10
2022-09-10T20:41:23.361Z,30.75
2022-09-10T20:43:53.841Z,31.00
2022-09-10T20:46:31.620Z,31.00
2022-09-10T20:49:05.404Z,29.40
2022-09-10T20:51:34.308Z,30.42
2022-09-10T20:54:01.707Z,29.42
2022-09-10T20:56:28.546Z,29.05
2022-09-10T20:58:55.869Z,27.45
2022-09-10T21:01:24.007Z,28.60
2022-09-10T21:03:54.787Z,28.95
2022-09-10T21:06:24.555Z,29.45
2022-09-10T21:08:51.510Z,30.42
2022-09-10T21:11:19.977Z,29.13
2022-09-10T21:13:53.261Z,29.90
2022-09-10T21:16:25.311Z,28.88
2022-09-10T21:19:12.326Z,32.42
2022-09-10T21:21:39.902Z,30.52
2022-09-10T21:24:08.577Z,30.00
2022-09-10T21:26:37.646Z,31.17
2022-09-10T21:29:06.234Z,31.45
2022-09-10T21:31:33.144Z,30.70
2022-09-10T21:34:03.116Z,30.70
2022-09-10T21:36:31.142Z,29.98
2022-09-10T21:38:59.927Z,30.10
2022-09-10T21:41:36.723Z,30.65
2022-09-10T21:44:06.079Z,29.30
2022-09-10T21:46:32.598Z,31.00
2022-09-10T21:48:59.558Z,30.00
2022-09-10T21:51:26.765Z,30.30
2022-09-10T21:53:59.167Z,29.92
2022-09-10T21:56:27.529Z,31.52
2022-09-10T21:58:54.009Z,30.85
2022-09-10T22:01:22.751Z,28.67
2022-09-10T22:03:49.462Z,29.98
2022-09-10T22:06:19.110Z,29.40
2022-09-10T22:08:59.135Z,31.38
2022-09-10T22:11:31.857Z,29.80
2022-09-10T22:14:01.028Z,30.80
2022-09-10T22:16:29.249Z,29.55
2022-09-10T22:18:56.561Z,28.88
2022-09-10T22:21:22.948Z,30.48
2022-09-10T22:23:51.317Z,30.23
2022-09-10T22:26:24.031Z,31.60
2022-09-10T22:28:59.610Z,29.52
2022-09-10T22:31:28.469Z,29.92
2022-09-10T22:33:57.517Z,28.88
2022-09-10T22:36:31.020Z,30.77
2022-09-10T22:39:03.295Z,29.42
2022-09-10T22:41:31.651Z,30.25
2022-09-10T22:43:58.344Z,29.13
2022-09-10T22:46:24.888Z,29.95
2022-09-10T22:48:51.343Z,29.02
2022-09-10T22:51:20.239Z,28.35
2022-09-10T22:53:46.953Z,30.15
2022-09-10T22:56:14.229Z,28.27
2022-09-10T22:58:40.998Z,28.75
2022-09-10T23:01:16.840Z,29.27
2022-09-10T23:03:44.243Z,28.90
2022-09-10T23:06:16.316Z,28.17
2022-09-10T23:08:44.310Z,28.45
2022-09-10T23:11:15.127Z,26.50
2022-09-10T23:13:42.873Z,26.98
2022-09-10T23:16:23.817Z,27.13
2022-09-10T23:18:52.267Z,27.65
2022-09-10T23:21:19.525Z,29.05
2022-09-10T23:23:47.522Z,28.00
2022-09-10T23:26:14.274Z,27.55
2022-09-10T23:28:42.221Z,29.83
2022-09-10T23:31:10.552Z,30.40
2022-09-10T23:33:37.082Z,30.50
2022-09-10T23:36:04.019Z,29.45
2022-09-10T23:38:31.458Z,30.15
2022-09-10T23:41:02.100Z,29.50
2022-09-10T23:43:28.918Z,29.27
2022-09-10T23:45:55.389Z,28.20
2022-09-10T23:48:25.296Z,28.85
2022-09-10T23:50:52.154Z,28.17
2022-09-10T23:53:19.415Z,27.60
2022-09-10T23:55:46.122Z,27.88
2022-09-10T23:58:12.635Z,30.05
